Aeroporto :
LOGIN :

Iscrizione | Disclaimer

   EN    FR    IT 

 










Sommario :    VFR   VFR Marginale   IFR   IFR Intensivo   IFR Molto Intensivo
Visibilità : 
Base nubi : 
>= 8 km
>= 3000ft
5 / 8 km
1000 / 3000 ft
1500m / 5 km
500 / 1000 ft
800 / 1500m
200 / 500 ft
< 800m
< 200 ft
Simboli :   Temporali  Nebbia  Neve Forte  Precipitazioni Forti  Vento > 20 kt
SIGMETs :   Varie  Temporali  Ghiacco  Turbolenza  Onda orograficha  Ceneri Vulcaniche






- Altitudine del aeroporto : 327 ft
- Codice IATA : BHX


EGBB - Birmingham

ULTIMO METAR :
  • 221920Z 23007KT 200V270 CAVOK 08/04 Q1018

METARs OBSOLETI :
  • 221850Z 25009KT 210V280 9999 FEW032 08/04 Q1018
  • 221820Z 22007KT 200V260 9999 FEW040 08/05 Q1018
  • 221750Z 25008KT 9999 FEW030 SCT040 08/05 Q1018
  • 221720Z 27014KT 8000 -RA SCT026 BKN035 08/04 Q1018

TAF TAF EGBB
Valido dal 22 a 18 ore il 23 a 18 ore UTC


221703Z 2218/2318 26014KT 9999 SCT020
PROB30
TEMPO 2218/2221 26018G28KT 9000 -SHRA
BECMG 2222/2302 18008KT 8000 -RA
TEMPO 2300/2309 4000 RADZ BKN009
PROB30
TEMPO 2303/2309 24020G35KT
BECMG 2309/2312 30017G27KT 9999 NSW
TEMPO 2309/2312 4000 +SHRA BKN010
TEMPO 2312/2318 7000 SHRA
BECMG 2315/2318 29008KT
ATIS : +44 121 780 0910



MetMap, La meteo Aeronautica in un colpo d'occhio ! - Copyright ORBIFLY Dicembre 2007 - Disclaimer

ORBIFLY MET'MAP TEAM :

Programmazione e sviluppo : Alexandra Zaïnal
Concezione : Baudouin d'Aumeries
Aiuto per la programmazione : Marc-Olivier Méhu
Supporto tecnico e logistico : Manuel Goepfert
Aiuto per la traduzione : Arnaldo La Scala

Contatto : metmap@orbifly.com




FONTI E CREDITI :

   NOAA